Time;durP1;ratioP1;P1;durP2;ratioP2;P2;SDS_P1;SDS_P2;PMS_P1;PMS_P2;Temp;Humidity;BMP_temperature;BMP_pressure;BME280_temperature;BME280_humidity;BME280_pressure;Samples;Min_cycle;Max_cycle;Signal;HPM_P1;HPM_P2
2022/01/28 00:00:41;;;;;;;3.53;3.22;;;;;;;-16.97;64.74;100368.06;5039404;28;20076;-56
2022/01/28 00:03:12;;;;;;;3.35;3.05;;;;;;;-16.47;64.96;100412.56;5038867;28;20116;-55
2022/01/28 00:05:45;;;;;;;4.07;3.40;;;;;;;-16.32;65.12;100406.50;5038987;28;20049;-56
2022/01/28 00:08:16;;;;;;;4.80;3.30;;;;;;;-16.20;65.20;100397.56;5039143;28;20292;-52
2022/01/28 00:10:46;;;;;;;5.32;3.45;;;;;;;-16.08;65.25;100395.31;5039105;28;20092;-52
2022/01/28 00:13:28;;;;;;;6.05;3.42;;;;;;;-15.94;65.84;100404.97;5038945;28;20112;-53
2022/01/28 00:38:32;;;;;;;5.43;3.40;;;;;;;-13.59;64.08;100357.13;5038314;28;20065;-52
2022/01/28 00:41:04;;;;;;;6.32;3.85;;;;;;;-13.70;63.84;100315.22;5038333;28;20124;-53
2022/01/28 00:43:34;;;;;;;5.30;3.60;;;;;;;-13.20;64.02;100353.50;5038197;28;20065;-56
2022/01/28 00:46:05;;;;;;;4.35;3.78;;;;;;;-13.00;63.70;100352.56;5038299;28;20104;-55
2022/01/28 00:48:36;;;;;;;4.95;4.45;;;;;;;-12.91;63.13;100349.88;5038193;28;20338;-55
2022/01/28 00:51:07;;;;;;;6.65;4.45;;;;;;;-13.32;62.82;100262.06;5037870;28;20061;-57
2022/01/28 00:53:40;;;;;;;7.93;5.50;;;;;;;-12.68;62.80;100357.56;5037832;28;20065;-55
2022/01/28 00:56:10;;;;;;;4.03;3.63;;;;;;;-12.70;62.72;100349.03;5038131;28;20071;-56
2022/01/28 00:58:41;;;;;;;4.80;3.60;;;;;;;-12.66;62.56;100343.44;5038197;28;20125;-55
2022/01/28 01:01:12;;;;;;;6.35;4.10;;;;;;;-12.53;62.71;100351.94;5038270;28;20348;-56
2022/01/28 01:03:43;;;;;;;5.43;4.28;;;;;;;-12.34;63.07;100314.81;5037274;28;20088;-57
2022/01/28 01:06:14;;;;;;;4.88;3.20;;;;;;;-11.91;62.78;100335.59;5038323;28;20053;-56
2022/01/28 01:08:47;;;;;;;5.53;3.20;;;;;;;-11.65;62.30;100321.50;5037883;28;20049;-57
2022/01/28 01:11:20;;;;;;;4.78;3.15;;;;;;;-11.73;60.81;100289.06;5037220;28;20041;-55
2022/01/28 01:13:52;;;;;;;3.45;2.85;;;;;;;-11.42;59.90;100310.53;5037500;28;20080;-57
2022/01/28 01:16:29;;;;;;;4.68;3.53;;;;;;;-11.22;59.66;100311.97;5037797;28;20217;-55
2022/01/28 01:19:15;;;;;;;6.97;3.50;;;;;;;-11.15;59.20;100296.50;5037070;28;20052;-57
2022/01/28 01:21:46;;;;;;;3.58;3.00;;;;;;;-11.04;58.69;100290.53;5035920;28;20236;-58
2022/01/28 01:24:23;;;;;;;5.93;3.80;;;;;;;-11.17;58.20;100267.75;5034769;28;20379;-55
2022/01/28 01:26:54;;;;;;;5.22;3.72;;;;;;;-11.08;58.36;100288.59;5036607;28;20057;-55
2022/01/28 01:29:25;;;;;;;6.82;3.45;;;;;;;-10.95;58.09;100281.09;5035385;28;20052;-52
2022/01/28 01:32:01;;;;;;;7.82;3.80;;;;;;;-10.91;57.54;100274.59;5037743;28;20061;-55
2022/01/28 01:34:32;;;;;;;6.47;4.35;;;;;;;-10.59;57.48;100266.69;5037026;28;20240;-52
2022/01/28 01:37:03;;;;;;;5.82;4.05;;;;;;;-10.46;56.79;100266.75;5037654;28;20049;-54
2022/01/28 01:39:36;;;;;;;5.45;3.78;;;;;;;-10.26;57.13;100252.00;5037113;28;20336;-52
2022/01/28 01:42:16;;;;;;;7.35;3.90;;;;;;;-9.96;57.37;100247.19;5037906;28;20057;-54
2022/01/28 01:53:07;;;;;;;6.25;3.90;;;;;;;-9.67;55.94;100242.34;5036993;28;20266;-57
2022/01/28 01:55:40;;;;;;;7.25;4.25;;;;;;;-9.65;55.50;100240.81;5036921;28;20072;-56
2022/01/28 01:58:11;;;;;;;5.78;4.50;;;;;;;-9.67;54.87;100232.22;5036933;28;20407;-55
2022/01/28 02:00:41;;;;;;;8.90;5.43;;;;;;;-9.68;54.62;100215.31;5036519;28;20049;-52
2022/01/28 02:03:12;;;;;;;9.63;5.75;;;;;;;-9.59;54.89;100226.00;5037180;28;20049;-56
2022/01/28 02:05:43;;;;;;;14.00;7.70;;;;;;;-9.61;55.15;100217.47;5037065;28;20064;-58
2022/01/28 02:08:14;;;;;;;13.70;7.18;;;;;;;-9.66;55.29;100218.84;5037378;28;20049;-58
2022/01/28 02:10:46;;;;;;;8.15;4.68;;;;;;;-9.58;54.72;100212.59;5037199;28;20045;-59
2022/01/28 02:13:17;;;;;;;8.52;4.72;;;;;;;-9.59;54.31;100200.72;5017524;28;20046;-55
2022/01/28 02:15:48;;;;;;;9.52;4.63;;;;;;;-9.55;55.08;100199.25;5033036;28;20057;-60
2022/01/28 02:18:18;;;;;;;8.05;4.75;;;;;;;-9.37;55.82;100191.94;5040315;28;20279;-57
2022/01/28 02:20:54;;;;;;;9.13;4.90;;;;;;;-9.38;55.80;100159.84;5040422;28;20053;-59
2022/01/28 02:23:25;;;;;;;10.90;4.38;;;;;;;-9.15;55.26;100179.81;5040446;28;20083;-56
2022/01/28 02:25:57;;;;;;;7.10;4.45;;;;;;;-8.97;55.21;100166.50;5040664;28;20332;-58
2022/01/28 02:28:31;;;;;;;5.75;4.00;;;;;;;-8.80;55.33;100148.13;5040801;28;20368;-57
2022/01/28 02:31:03;;;;;;;6.50;4.00;;;;;;;-8.62;54.30;100152.50;5040706;28;20057;-56
2022/01/28 02:33:34;;;;;;;6.38;3.88;;;;;;;-8.63;53.68;100135.59;5040822;28;20112;-57
2022/01/28 02:36:07;;;;;;;8.05;4.35;;;;;;;-8.55;53.22;100139.41;5040783;28;20084;-58
2022/01/28 02:38:38;;;;;;;8.30;4.53;;;;;;;-8.69;52.89;100126.81;5040703;28;20089;-56
2022/01/28 02:41:09;;;;;;;9.73;4.45;;;;;;;-8.64;52.80;100118.63;5040721;28;20061;-59
2022/01/28 02:43:44;;;;;;;8.40;4.82;;;;;;;-8.64;52.79;100103.41;5040520;28;20064;-58
2022/01/28 02:46:17;;;;;;;9.88;5.65;;;;;;;-8.54;52.06;100106.56;5040862;28;20121;-55
2022/01/28 02:48:55;;;;;;;11.48;6.75;;;;;;;-8.52;53.21;100109.19;5040616;28;20057;-59
2022/01/28 02:51:27;;;;;;;18.63;6.43;;;;;;;-8.49;53.09;100092.47;5040300;28;20271;-55
2022/01/28 02:54:00;;;;;;;13.57;6.28;;;;;;;-8.54;52.73;100095.56;5040188;28;20053;-56
2022/01/28 02:56:37;;;;;;;10.68;6.65;;;;;;;-8.66;52.36;100074.59;5040372;28;20415;-54
2022/01/28 02:59:08;;;;;;;14.18;6.22;;;;;;;-8.52;53.53;100078.78;5040406;28;20049;-55
2022/01/28 03:01:39;;;;;;;12.05;7.45;;;;;;;-8.36;54.08;100080.47;5039747;28;20073;-55
2022/01/28 03:04:16;;;;;;;13.95;7.75;;;;;;;-8.56;53.18;100059.13;5039917;28;20427;-56
2022/01/28 03:06:49;;;;;;;16.00;7.72;;;;;;;-8.58;52.95;100078.44;5039708;28;20332;-58
2022/01/28 03:09:21;;;;;;;18.75;8.23;;;;;;;-8.54;54.08;100065.16;5040160;28;20328;-58
2022/01/28 03:12:10;;;;;;;14.68;8.75;;;;;;;-8.34;54.56;100064.56;5039126;28;20051;-55
2022/01/28 03:14:59;;;;;;;19.50;9.43;;;;;;;-8.33;53.72;100066.31;5040182;28;20443;-57
2022/01/28 03:20:33;;;;;;;20.77;10.80;;;;;;;-8.43;54.08;100053.97;5038486;28;20248;-56
2022/01/28 03:23:06;;;;;;;22.38;10.55;;;;;;;-8.40;53.87;100043.13;5020008;28;20108;-59
2022/01/28 03:25:42;;;;;;;22.05;10.20;;;;;;;-8.42;54.21;100035.44;5019701;28;20053;-54
2022/01/28 03:28:13;;;;;;;24.23;11.82;;;;;;;-8.35;54.87;100032.41;5019673;28;20057;-56
2022/01/28 03:30:44;;;;;;;29.10;11.40;;;;;;;-8.27;54.18;100021.03;5035183;28;20064;-55
2022/01/28 03:33:15;;;;;;;29.40;11.55;;;;;;;-8.10;54.14;100028.69;5035926;28;20075;-54
2022/01/28 03:35:46;;;;;;;26.45;12.70;;;;;;;-8.04;53.81;100018.88;5038729;28;20060;-56
2022/01/28 03:38:18;;;;;;;34.75;12.63;;;;;;;-8.07;53.11;100017.03;5038172;28;20071;-57
2022/01/28 03:40:50;;;;;;;29.50;11.75;;;;;;;-8.05;53.61;100007.84;5039007;28;20280;-58
2022/01/28 03:43:21;;;;;;;31.17;13.18;;;;;;;-8.04;53.19;99998.59;5037644;28;20109;-55
2022/01/28 03:45:52;;;;;;;27.83;12.77;;;;;;;-8.00;53.42;100000.50;5038474;28;20073;-57
2022/01/28 03:48:23;;;;;;;27.15;11.85;;;;;;;-7.99;53.36;99992.09;5038301;28;20605;-56
2022/01/28 03:50:53;;;;;;;25.58;12.77;;;;;;;-7.93;53.60;99997.50;5038232;28;20096;-56
2022/01/28 03:53:26;;;;;;;25.15;12.50;;;;;;;-7.87;52.85;99992.75;5038098;28;20096;-56
2022/01/28 03:55:58;;;;;;;26.55;11.85;;;;;;;-7.96;53.03;99972.00;5038116;28;20069;-55
2022/01/28 03:58:29;;;;;;;26.75;12.52;;;;;;;-8.05;53.51;99930.94;5033181;28;20061;-56
2022/01/28 04:01:03;;;;;;;22.80;10.73;;;;;;;-7.81;52.72;99952.50;5037700;28;20053;-57
2022/01/28 04:03:42;;;;;;;24.80;10.93;;;;;;;-7.59;52.66;99973.88;5037471;28;20057;-56
2022/01/28 04:11:57;;;;;;;12.18;6.18;;;;;;;-7.67;51.84;99952.31;5036660;28;20068;-57
2022/01/28 04:14:40;;;;;;;8.30;5.15;;;;;;;-7.72;51.26;99943.59;5035581;28;20057;-58
2022/01/28 04:17:21;;;;;;;12.68;5.80;;;;;;;-7.65;51.64;99954.16;5035460;28;20395;-56
2022/01/28 04:19:53;;;;;;;10.32;4.88;;;;;;;-7.83;51.43;99888.13;5037764;28;20382;-59
2022/01/28 04:22:24;;;;;;;10.88;5.68;;;;;;;-7.48;51.64;99937.25;5037716;28;20049;-57
2022/01/28 04:24:56;;;;;;;8.82;4.90;;;;;;;-7.36;52.40;99942.06;5035082;28;20053;-56
2022/01/28 04:27:27;;;;;;;9.75;4.82;;;;;;;-7.38;51.83;99924.22;5037383;28;20055;-57
2022/01/28 04:29:58;;;;;;;8.93;4.53;;;;;;;-7.34;51.65;99930.28;5037523;28;20068;-55
2022/01/28 04:32:30;;;;;;;9.45;4.30;;;;;;;-7.24;52.22;99926.53;5038035;28;20117;-56
2022/01/28 04:35:00;;;;;;;6.93;4.30;;;;;;;-7.25;52.38;99924.81;5036350;28;20041;-57
2022/01/28 04:37:38;;;;;;;9.43;4.70;;;;;;;-7.29;52.29;99917.84;5037634;28;20109;-57
2022/01/28 04:40:17;;;;;;;7.75;4.28;;;;;;;-7.40;52.95;99925.78;5037123;28;20087;-57
2022/01/28 04:43:03;;;;;;;7.45;4.15;;;;;;;-7.43;53.34;99910.44;5037509;28;20374;-57
2022/01/28 04:45:42;;;;;;;7.35;4.38;;;;;;;-7.49;53.43;99920.25;5037214;28;20049;-57
2022/01/28 04:48:21;;;;;;;13.90;6.22;;;;;;;-7.41;53.83;99918.13;5038058;28;20661;-56
2022/01/28 04:51:08;;;;;;;7.22;3.78;;;;;;;-7.37;53.83;99913.25;5038099;28;20052;-56
2022/01/28 04:53:49;;;;;;;6.90;4.78;;;;;;;-7.29;53.84;99912.75;5031073;28;20057;-57
2022/01/28 04:56:37;;;;;;;7.80;4.70;;;;;;;-7.23;54.27;99897.84;5037894;28;20281;-56
2022/01/28 04:59:27;;;;;;;8.43;5.65;;;;;;;-7.21;53.94;99898.78;5035003;28;20084;-55
2022/01/28 05:05:04;;;;;;;11.25;5.35;;;;;;;-7.41;53.97;99888.53;5037420;28;19928;-59
2022/01/28 05:11:03;;;;;;;9.38;5.60;;;;;;;-7.48;54.78;99901.72;5017750;28;20181;-57
2022/01/28 05:14:07;;;;;;;15.25;6.47;;;;;;;-7.43;55.30;99902.81;5034418;28;20113;-56
2022/01/28 05:28:00;;;;;;;11.45;5.82;;;;;;;-7.77;55.69;99901.91;5017780;28;20149;-58
2022/01/28 05:30:33;;;;;;;10.23;5.57;;;;;;;-7.85;56.36;99894.78;5022002;28;20061;-58
2022/01/28 05:33:04;;;;;;;11.18;5.53;;;;;;;-7.92;56.56;99895.25;5037662;28;20065;-56
2022/01/28 05:35:34;;;;;;;9.48;4.88;;;;;;;-7.94;57.19;99891.78;5037718;28;20213;-60
2022/01/28 05:38:05;;;;;;;10.80;5.35;;;;;;;-7.93;57.67;99885.94;5037495;28;20053;-57
2022/01/28 05:40:36;;;;;;;10.80;4.97;;;;;;;-7.92;57.82;99887.66;5037620;28;20297;-58
2022/01/28 05:43:07;;;;;;;8.70;4.85;;;;;;;-7.82;58.07;99894.94;5037427;28;20292;-58
2022/01/28 05:45:45;;;;;;;8.20;4.22;;;;;;;-7.85;58.17;99884.63;5037190;28;20060;-57
2022/01/28 05:48:16;;;;;;;7.57;4.07;;;;;;;-7.76;58.50;99888.44;5037085;28;20050;-57
2022/01/28 05:50:46;;;;;;;12.07;5.22;;;;;;;-7.61;58.93;99886.69;5040529;28;20112;-57
2022/01/28 05:53:17;;;;;;;15.23;6.85;;;;;;;-7.54;58.79;99890.38;5040800;28;20125;-57
2022/01/28 05:55:48;;;;;;;22.38;9.00;;;;;;;-7.48;58.75;99886.50;5040494;28;20132;-57
2022/01/28 05:58:19;;;;;;;22.58;8.65;;;;;;;-7.41;58.83;99888.53;5041198;28;20056;-58
2022/01/28 06:00:51;;;;;;;35.92;13.65;;;;;;;-7.43;58.69;99879.97;5040513;28;20055;-56
2022/01/28 06:03:22;;;;;;;26.98;11.82;;;;;;;-7.32;59.08;99882.16;5041218;28;20057;-57
2022/01/28 06:05:53;;;;;;;15.30;7.50;;;;;;;-7.29;58.79;99882.28;5041284;28;20248;-57
2022/01/28 06:08:24;;;;;;;19.75;7.15;;;;;;;-7.33;58.80;99876.22;5041329;28;20079;-58
2022/01/28 06:10:54;;;;;;;14.57;7.05;;;;;;;-7.45;58.85;99886.63;5041242;28;20056;-56
2022/01/28 06:13:25;;;;;;;15.43;7.22;;;;;;;-7.77;58.81;99854.59;5041339;28;20052;-57
2022/01/28 06:15:57;;;;;;;13.32;6.53;;;;;;;-7.68;59.57;99877.03;5041201;28;20057;-57
2022/01/28 06:18:28;;;;;;;12.60;6.10;;;;;;;-7.65;60.21;99882.25;5040876;28;20049;-58
2022/01/28 06:20:59;;;;;;;13.13;7.35;;;;;;;-7.60;60.57;99885.88;5040717;28;20061;-54
2022/01/28 06:23:30;;;;;;;9.98;5.75;;;;;;;-7.60;61.03;99883.34;5040427;28;20065;-56
2022/01/28 06:26:01;;;;;;;16.92;6.57;;;;;;;-7.85;61.33;99833.91;5040401;28;20063;-57
2022/01/28 06:28:33;;;;;;;13.48;6.93;;;;;;;-7.74;61.58;99829.38;5040780;28;20080;-58
2022/01/28 06:31:06;;;;;;;11.63;5.95;;;;;;;-7.43;61.93;99882.50;5038496;28;20051;-58
2022/01/28 06:33:37;;;;;;;13.48;5.65;;;;;;;-7.51;62.33;99860.97;5034602;28;20063;-57
2022/01/28 06:36:08;;;;;;;11.02;5.70;;;;;;;-7.63;62.22;99871.38;5040714;28;20217;-57
2022/01/28 06:38:39;;;;;;;10.27;5.10;;;;;;;-7.81;62.67;99868.78;5040893;28;20103;-56
2022/01/28 06:41:11;;;;;;;11.20;5.50;;;;;;;-8.01;63.29;99859.31;5040657;28;20251;-58
2022/01/28 06:43:42;;;;;;;11.93;5.68;;;;;;;-8.11;63.60;99869.75;5040361;28;20049;-56
2022/01/28 06:46:15;;;;;;;8.85;5.38;;;;;;;-8.21;63.92;99852.31;5040386;28;20061;-58
2022/01/28 06:48:46;;;;;;;12.07;6.13;;;;;;;-8.11;63.91;99855.44;5040380;28;20049;-58
2022/01/28 06:51:17;;;;;;;8.73;4.72;;;;;;;-8.26;63.16;99858.06;5040500;28;20103;-56
2022/01/28 06:53:48;;;;;;;7.50;4.03;;;;;;;-8.40;62.74;99851.41;5040483;28;20107;-57
2022/01/28 06:56:19;;;;;;;6.93;3.55;;;;;;;-8.63;62.37;99841.75;5040109;28;20401;-57
2022/01/28 06:58:50;;;;;;;4.72;3.60;;;;;;;-8.68;62.96;99857.56;5040071;28;20389;-54
2022/01/28 07:01:26;;;;;;;5.93;3.60;;;;;;;-8.73;63.13;99858.97;5039005;28;20081;-57
2022/01/28 07:03:57;;;;;;;4.50;2.80;;;;;;;-8.89;62.42;99843.72;5040616;28;20378;-56
2022/01/28 07:06:28;;;;;;;8.77;3.80;;;;;;;-8.97;62.80;99855.13;5040497;28;20285;-56
2022/01/28 07:08:59;;;;;;;4.82;3.40;;;;;;;-9.08;62.73;99857.06;5040416;28;20117;-56
2022/01/28 07:11:29;;;;;;;7.85;3.65;;;;;;;-9.14;62.94;99854.19;5040453;28;20120;-57
2022/01/28 07:14:00;;;;;;;4.68;3.15;;;;;;;-9.24;62.76;99845.19;5040504;28;20057;-57
2022/01/28 07:16:32;;;;;;;7.32;4.03;;;;;;;-9.29;62.78;99851.66;5039923;28;20312;-57
2022/01/28 07:19:04;;;;;;;7.25;4.20;;;;;;;-9.34;62.84;99853.06;5037932;28;20096;-56
2022/01/28 07:21:35;;;;;;;58.72;20.67;;;;;;;-9.38;63.07;99851.19;5039246;28;20283;-57
2022/01/28 07:24:06;;;;;;;121.22;43.25;;;;;;;-9.44;63.52;99830.59;5038434;28;20083;-58
2022/01/28 07:26:37;;;;;;;87.18;32.10;;;;;;;-9.39;63.50;99839.28;5038827;28;20335;-58
2022/01/28 07:29:10;;;;;;;38.95;15.48;;;;;;;-9.44;63.44;99846.63;5039265;28;20230;-56
2022/01/28 07:31:43;;;;;;;23.10;11.15;;;;;;;-9.47;63.75;99845.59;5038603;28;20062;-57
2022/01/28 07:34:13;;;;;;;14.55;7.53;;;;;;;-9.47;63.97;99846.47;5038277;28;20335;-58
2022/01/28 07:36:44;;;;;;;8.55;5.70;;;;;;;-9.50;64.13;99840.38;5039812;28;20084;-54
2022/01/28 07:39:15;;;;;;;7.65;5.07;;;;;;;-9.61;64.28;99822.94;5039575;28;20055;-56
2022/01/28 07:41:46;;;;;;;9.23;5.30;;;;;;;-9.60;64.04;99838.97;5039674;28;20050;-56
2022/01/28 07:44:16;;;;;;;9.90;5.18;;;;;;;-9.61;64.49;99834.69;5039688;28;20056;-56
2022/01/28 07:46:49;;;;;;;8.27;4.70;;;;;;;-9.59;65.04;99838.19;5039332;28;20060;-55
2022/01/28 07:49:19;;;;;;;9.23;4.95;;;;;;;-9.53;65.98;99837.63;5039395;28;20132;-55
2022/01/28 07:51:50;;;;;;;6.78;4.15;;;;;;;-9.62;65.44;99833.81;5039266;28;20116;-57
2022/01/28 07:54:21;;;;;;;6.93;4.85;;;;;;;-9.77;65.42;99835.47;5039366;28;20092;-56
2022/01/28 07:56:54;;;;;;;7.53;4.05;;;;;;;-9.82;65.60;99826.75;5039319;28;20049;-56
2022/01/28 07:59:25;;;;;;;8.70;5.28;;;;;;;-9.91;65.43;99826.22;5039319;28;20255;-56
2022/01/28 08:01:57;;;;;;;8.68;5.30;;;;;;;-10.23;65.69;99812.59;5039265;28;20068;-55
2022/01/28 08:04:28;;;;;;;8.50;5.75;;;;;;;-10.32;66.17;99827.25;5039280;28;20057;-56
2022/01/28 08:06:58;;;;;;;8.07;5.05;;;;;;;-10.35;66.34;99827.06;5039149;28;20125;-54
2022/01/28 08:09:29;;;;;;;6.50;4.65;;;;;;;-10.48;66.40;99821.28;5039233;28;20346;-52
2022/01/28 08:12:00;;;;;;;7.78;5.30;;;;;;;-10.56;66.32;99827.50;5039201;28;20060;-56
2022/01/28 08:14:31;;;;;;;7.70;5.00;;;;;;;-10.66;66.35;99821.06;5039240;28;20057;-58
2022/01/28 08:17:04;;;;;;;7.28;4.93;;;;;;;-10.72;66.24;99819.81;5038516;28;20091;-55
2022/01/28 08:19:34;;;;;;;8.93;5.53;;;;;;;-10.87;66.27;99824.78;5038920;28;20103;-57
2022/01/28 08:22:05;;;;;;;11.90;7.20;;;;;;;-10.93;66.77;99820.25;5038835;28;20049;-59
2022/01/28 08:24:36;;;;;;;10.85;6.60;;;;;;;-10.98;66.93;99826.66;5039021;28;20096;-57
2022/01/28 08:27:07;;;;;;;8.75;6.43;;;;;;;-11.10;66.84;99820.84;5038669;28;20252;-56
2022/01/28 08:29:38;;;;;;;11.07;6.40;;;;;;;-11.29;66.64;99828.91;5038595;28;20112;-56
2022/01/28 08:32:15;;;;;;;7.75;4.60;;;;;;;-11.53;67.15;99803.00;5038866;28;20092;-56
2022/01/28 08:34:45;;;;;;;8.02;5.40;;;;;;;-11.48;67.66;99821.84;5038857;28;20315;-55
2022/01/28 08:37:16;;;;;;;11.35;6.35;;;;;;;-11.45;67.92;99822.03;5038685;28;20363;-57
2022/01/28 08:39:49;;;;;;;7.18;5.28;;;;;;;-11.50;68.07;99820.88;5038585;28;20055;-56
2022/01/28 08:42:19;;;;;;;6.90;4.93;;;;;;;-11.50;68.27;99820.88;5038269;28;20112;-56
2022/01/28 08:44:50;;;;;;;7.22;4.90;;;;;;;-11.52;68.79;99817.38;5038097;28;20081;-56
2022/01/28 08:47:22;;;;;;;24.38;8.70;;;;;;;-11.51;68.77;99821.63;5037987;28;20053;-57
2022/01/28 08:49:53;;;;;;;23.35;8.13;;;;;;;-11.65;68.84;99818.25;5037859;28;20057;-55
2022/01/28 08:52:24;;;;;;;15.90;7.70;;;;;;;-11.85;69.37;99814.44;5037473;28;20124;-55
2022/01/28 08:54:55;;;;;;;25.20;9.45;;;;;;;-11.73;69.64;99830.34;5037094;28;20053;-53
2022/01/28 08:57:26;;;;;;;27.88;10.70;;;;;;;-11.73;69.54;99830.34;5035752;28;20049;-54
2022/01/28 08:59:56;;;;;;;32.03;10.32;;;;;;;-11.66;69.83;99825.69;5034828;28;20359;-59
2022/01/28 09:02:29;;;;;;;37.88;13.68;;;;;;;-11.63;69.95;99826.78;5032108;28;20100;-57
2022/01/28 09:04:59;;;;;;;69.75;20.52;;;;;;;-11.68;70.21;99832.28;5033176;28;20332;-56
2022/01/28 09:07:30;;;;;;;54.17;18.90;;;;;;;-11.65;70.58;99822.41;5032173;28;20119;-57
2022/01/28 09:10:11;;;;;;;68.93;21.98;;;;;;;-11.58;71.36;99835.50;5032878;28;20049;-53
2022/01/28 09:12:49;;;;;;;58.28;18.67;;;;;;;-11.56;71.52;99826.38;5033125;28;20057;-56
2022/01/28 09:15:20;;;;;;;48.33;17.13;;;;;;;-11.52;72.09;99824.94;5031316;28;20327;-56
2022/01/28 09:17:59;;;;;;;47.83;14.90;;;;;;;-11.56;72.37;99828.03;5033880;28;20057;-57
2022/01/28 09:20:30;;;;;;;37.70;14.20;;;;;;;-11.58;72.71;99830.47;5034088;28;20067;-57
2022/01/28 09:23:02;;;;;;;48.22;12.45;;;;;;;-11.75;73.22;99798.28;5034156;28;20051;-55
2022/01/28 09:25:34;;;;;;;30.98;9.98;;;;;;;-11.62;73.52;99827.66;5033638;28;20037;-56
2022/01/28 09:28:05;;;;;;;25.13;10.07;;;;;;;-11.69;73.49;99831.41;5034101;28;20057;-55
2022/01/28 09:30:36;;;;;;;13.30;7.00;;;;;;;-11.83;73.59;99834.66;5033078;28;20378;-57
2022/01/28 09:33:09;;;;;;;19.98;9.25;;;;;;;-11.94;73.59;99818.91;5033744;28;20278;-53
2022/01/28 09:35:41;;;;;;;31.15;10.82;;;;;;;-11.85;74.32;99821.13;5033667;28;20067;-57
2022/01/28 09:38:13;;;;;;;23.23;9.63;;;;;;;-11.77;74.24;99818.31;5034227;28;20061;-56
2022/01/28 09:40:44;;;;;;;42.72;13.70;;;;;;;-11.72;74.14;99827.03;5033589;28;20092;-56
2022/01/28 09:43:15;;;;;;;39.92;13.20;;;;;;;-11.75;73.97;99821.81;5034054;28;20072;-55
2022/01/28 09:45:49;;;;;;;30.98;12.52;;;;;;;-11.79;73.80;99824.91;5033621;28;20050;-57
2022/01/28 09:48:22;;;;;;;110.05;46.40;;;;;;;-12.13;73.90;99765.56;5033907;28;20061;-56
2022/01/28 09:50:53;;;;;;;48.63;21.25;;;;;;;-11.87;73.57;99812.63;5033775;28;20048;-55
2022/01/28 09:53:24;;;;;;;50.33;24.00;;;;;;;-11.96;73.64;99812.88;5032840;28;20335;-56
2022/01/28 09:55:55;;;;;;;12.48;8.32;;;;;;;-12.31;73.40;99796.31;5033641;28;20061;-56
2022/01/28 09:58:26;;;;;;;10.32;6.18;;;;;;;-12.45;73.68;99812.19;5032644;28;20069;-56
2022/01/28 10:01:01;;;;;;;7.25;4.53;;;;;;;-12.68;73.94;99798.91;5032666;28;20069;-54
2022/01/28 10:03:38;;;;;;;6.47;4.75;;;;;;;-12.47;74.48;99816.22;5032714;28;20061;-56
2022/01/28 10:06:09;;;;;;;9.68;6.35;;;;;;;-12.33;74.89;99815.50;5032972;28;20445;-57
2022/01/28 10:08:41;;;;;;;58.95;18.52;;;;;;;-12.46;74.36;99815.44;5032603;28;20084;-53
2022/01/28 10:11:16;;;;;;;200.48;51.83;;;;;;;-12.42;74.62;99817.41;5032658;28;20049;-56
2022/01/28 10:13:50;;;;;;;134.68;40.40;;;;;;;-12.64;74.46;99789.91;5032588;28;20100;-54
2022/01/28 10:16:22;;;;;;;49.47;16.73;;;;;;;-12.57;74.80;99807.19;5032139;28;20099;-54
2022/01/28 10:18:56;;;;;;;25.10;12.43;;;;;;;-12.68;74.96;99783.81;5032776;28;20053;-54
2022/01/28 10:21:33;;;;;;;29.15;11.25;;;;;;;-12.74;75.07;99772.47;5031759;28;20057;-52
2022/01/28 10:24:15;;;;;;;22.63;9.23;;;;;;;-12.54;75.29;99796.44;5032529;28;20247;-56
2022/01/28 10:26:48;;;;;;;19.38;8.15;;;;;;;-12.87;75.14;99740.56;5032146;28;20247;-58
2022/01/28 10:29:23;;;;;;;16.00;7.55;;;;;;;-12.52;75.48;99792.41;5032248;28;20306;-53
2022/01/28 10:31:56;;;;;;;21.55;9.20;;;;;;;-12.40;75.50;99795.75;5033033;28;20068;-55
2022/01/28 10:34:34;;;;;;;22.38;9.55;;;;;;;-12.61;75.69;99768.34;5033450;28;20370;-53
2022/01/28 10:37:13;;;;;;;22.73;10.40;;;;;;;-12.57;75.65;99776.13;5036873;28;20095;-55
2022/01/28 10:39:47;;;;;;;13.82;7.00;;;;;;;-12.55;76.05;99782.09;5037093;28;20045;-56
2022/01/28 10:42:36;;;;;;;10.98;5.80;;;;;;;-12.64;76.18;99754.69;5036760;28;20088;-56
2022/01/28 10:45:12;;;;;;;16.38;7.60;;;;;;;-12.40;76.49;99788.19;5036809;28;20042;-53
2022/01/28 10:47:45;;;;;;;12.73;6.80;;;;;;;-12.40;76.05;99785.66;5034908;28;20077;-56
2022/01/28 10:50:24;;;;;;;14.43;6.80;;;;;;;-12.31;76.37;99791.28;5032570;28;20053;-54
2022/01/28 10:53:04;;;;;;;14.13;6.78;;;;;;;-12.55;76.65;99774.53;5034288;28;20220;-56
2022/01/28 10:55:36;;;;;;;13.68;6.75;;;;;;;-12.37;76.74;99790.91;5036859;28;20067;-55
2022/01/28 10:58:09;;;;;;;13.60;7.05;;;;;;;-12.69;76.85;99746.81;5032792;28;20081;-52
2022/01/28 11:00:42;;;;;;;12.60;6.45;;;;;;;-13.21;77.23;99652.78;5035542;28;20319;-55
2022/01/28 11:03:15;;;;;;;13.88;6.47;;;;;;;-13.41;77.38;99643.06;5036246;28;20053;-54
2022/01/28 11:05:47;;;;;;;12.80;5.70;;;;;;;-12.48;77.57;99791.81;5036410;28;20060;-55
2022/01/28 11:08:18;;;;;;;14.70;6.07;;;;;;;-12.47;77.94;99798.59;5036507;28;20128;-57
2022/01/28 11:10:49;;;;;;;14.32;6.97;;;;;;;-12.43;78.07;99798.03;5036114;28;20331;-55
2022/01/28 11:13:20;;;;;;;19.23;8.18;;;;;;;-12.42;78.54;99789.72;5035983;28;20103;-53
2022/01/28 11:15:51;;;;;;;16.42;8.05;;;;;;;-12.46;78.59;99792.78;5035899;28;20049;-59
2022/01/28 11:18:23;;;;;;;12.13;5.43;;;;;;;-13.41;78.86;99638.91;5035588;28;20049;-54
2022/01/28 11:21:00;;;;;;;8.43;4.47;;;;;;;-12.52;79.32;99794.91;5035198;28;20072;-54
2022/01/28 11:23:37;;;;;;;11.75;6.30;;;;;;;-12.54;79.28;99789.75;5035843;28;20344;-50
2022/01/28 11:26:19;;;;;;;18.02;8.32;;;;;;;-12.65;79.25;99768.91;5035885;28;20080;-55
2022/01/28 11:28:52;;;;;;;13.43;6.47;;;;;;;-12.61;79.19;99785.94;5035655;28;20057;-57
2022/01/28 11:31:46;;;;;;;9.32;5.57;;;;;;;-12.62;79.27;99779.19;5033392;28;20061;-58
2022/01/28 11:34:20;;;;;;;9.82;6.15;;;;;;;-12.67;79.51;99772.97;5033917;28;20132;-59
2022/01/28 11:36:53;;;;;;;11.93;7.07;;;;;;;-12.74;79.54;99755.72;5035445;28;20397;-58
2022/01/28 11:39:32;;;;;;;10.98;6.35;;;;;;;-12.62;79.50;99769.13;5035826;28;20060;-56
2022/01/28 11:42:08;;;;;;;39.53;16.77;;;;;;;-12.62;79.59;99768.25;5035070;28;20801;-55
2022/01/28 11:44:44;;;;;;;16.42;8.43;;;;;;;-12.60;79.49;99755.00;5036429;28;20400;-57
2022/01/28 11:47:24;;;;;;;19.45;9.27;;;;;;;-12.48;79.67;99738.94;5034860;28;20449;-56
2022/01/28 11:49:57;;;;;;;19.77;9.57;;;;;;;-12.32;79.46;99756.81;5035479;28;20052;-54
2022/01/28 11:52:31;;;;;;;21.38;10.27;;;;;;;-12.34;79.24;99750.81;5036105;28;20053;-55
2022/01/28 11:55:32;;;;;;;20.80;10.15;;;;;;;-12.35;79.04;99751.59;5035844;28;20045;-53
2022/01/28 11:58:05;;;;;;;17.60;9.48;;;;;;;-12.35;78.89;99744.03;5035298;28;20104;-58
2022/01/28 12:00:38;;;;;;;17.05;8.95;;;;;;;-12.42;78.85;99726.78;5035327;28;20045;-59
2022/01/28 12:03:18;;;;;;;19.83;8.25;;;;;;;-12.31;79.17;99730.88;5035686;28;20080;-56
2022/01/28 12:05:56;;;;;;;13.45;7.90;;;;;;;-12.17;79.31;99739.34;5033396;28;20108;-59
2022/01/28 12:08:32;;;;;;;18.98;8.90;;;;;;;-12.19;79.21;99738.34;5035052;28;20060;-54
2022/01/28 12:11:06;;;;;;;28.55;16.45;;;;;;;-12.09;79.29;99732.28;5035246;28;20112;-56
2022/01/28 12:14:00;;;;;;;37.45;19.55;;;;;;;-12.09;79.16;99722.19;5035245;28;20061;-54
2022/01/28 12:16:33;;;;;;;21.48;10.88;;;;;;;-12.13;78.57;99727.78;5035397;28;20069;-56
2022/01/28 12:19:15;;;;;;;19.95;9.80;;;;;;;-12.14;78.98;99718.50;5035144;28;20045;-55
2022/01/28 12:22:09;;;;;;;11.65;6.93;;;;;;;-12.02;78.97;99724.34;5035157;28;20068;-54
2022/01/28 12:24:42;;;;;;;12.57;6.72;;;;;;;-11.97;78.89;99728.03;5035570;28;20049;-54
2022/01/28 12:27:13;;;;;;;12.40;6.38;;;;;;;-11.95;78.77;99716.41;5035514;28;20072;-58
2022/01/28 12:29:46;;;;;;;11.75;6.72;;;;;;;-12.36;78.44;99656.69;5035006;28;20120;-54
2022/01/28 12:32:23;;;;;;;12.65;7.50;;;;;;;-12.14;78.42;99708.44;5034735;28;20121;-58
2022/01/28 12:34:54;;;;;;;15.95;7.65;;;;;;;-12.16;78.68;99714.22;5035042;28;20052;-56
2022/01/28 12:37:28;;;;;;;14.13;7.03;;;;;;;-12.27;78.60;99701.75;5034613;28;20362;-58
2022/01/28 12:40:05;;;;;;;13.00;7.05;;;;;;;-12.56;78.67;99639.44;5034969;28;20713;-53
2022/01/28 12:42:41;;;;;;;8.85;5.65;;;;;;;-12.25;78.80;99685.97;5034903;28;20100;-58
2022/01/28 12:45:12;;;;;;;9.52;6.03;;;;;;;-12.17;78.65;99709.97;5034850;28;20057;-55